createdAt,value
2017-08-09T00:00:11.799Z,65.37
2017-08-09T00:00:40.096Z,65.37
2017-08-09T00:01:08.242Z,65.84
2017-08-09T00:01:36.520Z,65.81
2017-08-09T00:02:04.707Z,65.66
2017-08-09T00:02:32.996Z,65.75
2017-08-09T00:03:01.291Z,65.53
2017-08-09T00:03:29.591Z,66.33
2017-08-09T00:03:57.767Z,66.39
2017-08-09T00:04:26.066Z,66.52
2017-08-09T00:04:54.340Z,65.91
2017-08-09T00:05:22.680Z,66.23
2017-08-09T00:05:50.933Z,66.39
2017-08-09T00:06:19.138Z,66.33
2017-08-09T00:06:47.257Z,66.23
2017-08-09T00:07:15.350Z,66.23
2017-08-09T00:07:43.534Z,66.23
2017-08-09T00:08:11.838Z,66.1
2017-08-09T00:08:39.918Z,66.23
2017-08-09T00:09:08.096Z,66.52
2017-08-09T00:09:36.342Z,66.14
2017-08-09T00:10:04.520Z,66.1
2017-08-09T00:10:32.835Z,66.52
2017-08-09T00:11:01.115Z,66.71
2017-08-09T00:11:29.347Z,66.77
2017-08-09T00:11:57.521Z,66.61
2017-08-09T00:12:25.995Z,66.49
2017-08-09T00:12:54.232Z,66.33
2017-08-09T00:13:22.435Z,66.61
2017-08-09T00:13:50.586Z,66.71
2017-08-09T00:14:18.851Z,66.61
2017-08-09T00:14:46.952Z,66.33
2017-08-09T00:15:15.252Z,66.81
2017-08-09T00:15:43.588Z,66.52
2017-08-09T00:16:11.886Z,66.91
2017-08-09T00:16:40.136Z,66.81
2017-08-09T00:17:08.383Z,67.1
2017-08-09T00:17:36.530Z,67.07
2017-08-09T00:18:04.640Z,67.1
2017-08-09T00:18:32.776Z,67.68
2017-08-09T00:19:01.068Z,67.77
2017-08-09T00:19:29.177Z,67.58
2017-08-09T00:19:57.373Z,67.48
2017-08-09T00:20:25.591Z,67.68
2017-08-09T00:20:53.794Z,68.15
2017-08-09T00:21:22.093Z,67.86
2017-08-09T00:21:50.370Z,68.02
2017-08-09T00:22:18.634Z,67.74
2017-08-09T00:22:46.855Z,68.02
2017-08-09T00:23:15.158Z,67.74
2017-08-09T00:23:43.301Z,68.21
2017-08-09T00:24:11.523Z,68.21
2017-08-09T00:24:39.784Z,68.31
2017-08-09T00:25:08.058Z,68.31
2017-08-09T00:25:36.328Z,68.51
2017-08-09T00:26:04.490Z,68.31
2017-08-09T00:26:32.786Z,68.41
2017-08-09T00:27:01.055Z,68.6
2017-08-09T00:27:29.363Z,69.08
2017-08-09T00:27:57.621Z,68.89
2017-08-09T00:28:25.749Z,68.85
2017-08-09T00:28:53.948Z,68.85
2017-08-09T00:29:22.142Z,68.89
2017-08-09T00:29:50.189Z,68.51
2017-08-09T00:30:18.474Z,69.05
2017-08-09T00:30:46.866Z,69.14
2017-08-09T00:31:15.080Z,69.24
2017-08-09T00:31:43.237Z,69.18
2017-08-09T00:32:11.509Z,69.37
2017-08-09T00:32:39.698Z,69.46
2017-08-09T00:33:07.914Z,69.46
2017-08-09T00:33:36.103Z,69.18
2017-08-09T00:34:04.279Z,69.27
2017-08-09T00:34:32.461Z,69.46
2017-08-09T00:35:00.770Z,68.98
2017-08-09T00:35:28.943Z,69.08
2017-08-09T00:35:57.233Z,69.08
2017-08-09T00:36:25.531Z,69.08
2017-08-09T00:36:53.498Z,68.98
2017-08-09T00:37:21.594Z,68.98
2017-08-09T00:37:49.737Z,68.83
2017-08-09T00:38:18.064Z,68.44
2017-08-09T00:38:46.325Z,68.44
2017-08-09T00:39:14.383Z,68.44
2017-08-09T00:39:42.606Z,68.31
2017-08-09T00:40:10.718Z,68.35
2017-08-09T00:40:39.076Z,68.35
2017-08-09T00:41:07.103Z,68.35
2017-08-09T00:41:35.382Z,68.44
2017-08-09T00:42:03.745Z,68.63
2017-08-09T00:42:31.976Z,68.44
2017-08-09T00:42:59.978Z,68.73
2017-08-09T00:43:28.126Z,68.35
2017-08-09T00:43:56.259Z,68.83
2017-08-09T00:44:24.457Z,68.63
2017-08-09T00:44:52.650Z,68.63
2017-08-09T00:45:20.992Z,68.92
2017-08-09T00:45:49.455Z,68.63
2017-08-09T00:46:17.523Z,69.12
2017-08-09T00:46:45.879Z,68.92
2017-08-09T00:47:14.017Z,68.92
2017-08-09T00:47:42.335Z,68.73
2017-08-09T00:48:10.593Z,68.35
2017-08-09T00:48:38.919Z,68.35
2017-08-09T00:49:07.077Z,68.41
2017-08-09T00:49:35.436Z,68.63
2017-08-09T00:50:03.734Z,68.54
2017-08-09T00:50:31.928Z,68.54
2017-08-09T00:51:00.324Z,68.35
2017-08-09T00:51:28.571Z,68.25
2017-08-09T00:51:56.814Z,68.54
2017-08-09T00:52:25.168Z,68.31
2017-08-09T00:52:53.388Z,68.44
2017-08-09T00:53:21.777Z,68.44
2017-08-09T00:53:50.119Z,68.89
2017-08-09T00:54:18.439Z,68.79
2017-08-09T00:54:46.792Z,68.79
2017-08-09T00:55:14.939Z,68.89
2017-08-09T00:55:43.289Z,68.6
2017-08-09T00:56:11.806Z,69.18
2017-08-09T00:56:40.141Z,69.08
2017-08-09T00:57:08.336Z,69.37
2017-08-09T00:57:36.666Z,69.56
2017-08-09T00:58:04.661Z,69.56
2017-08-09T00:58:32.860Z,70.04
2017-08-09T00:59:00.970Z,69.62
2017-08-09T00:59:29.180Z,69.62
2017-08-09T00:59:57.452Z,69.53
2017-08-09T01:00:25.640Z,69.72
2017-08-09T01:00:53.958Z,69.72
2017-08-09T01:01:22.205Z,69.72
2017-08-09T01:01:50.464Z,70.1
2017-08-09T01:02:18.687Z,69.81
2017-08-09T01:02:46.878Z,70.29
2017-08-09T01:03:14.982Z,70.49
2017-08-09T01:03:43.253Z,70.52
2017-08-09T01:04:11.406Z,70.39
2017-08-09T01:04:39.582Z,70.04
2017-08-09T01:05:07.789Z,70.39
2017-08-09T01:05:35.748Z,70.49
2017-08-09T01:06:04.311Z,70.39
2017-08-09T01:06:32.728Z,70.29
2017-08-09T01:07:00.979Z,69.81
2017-08-09T01:07:29.086Z,69.72
2017-08-09T01:07:57.420Z,69.81
2017-08-09T01:08:25.607Z,69.72
2017-08-09T01:08:53.812Z,69.72
2017-08-09T01:09:22.112Z,70.01
2017-08-09T01:09:50.284Z,70.01
2017-08-09T01:10:18.617Z,70.01
2017-08-09T01:10:46.845Z,70.39
2017-08-09T01:11:15.103Z,70.39
2017-08-09T01:11:43.433Z,70.2
2017-08-09T01:12:11.722Z,70.39
2017-08-09T01:12:40.138Z,70.2
2017-08-09T01:13:08.482Z,70.39
2017-08-09T01:13:36.666Z,70.29
2017-08-09T01:14:05.055Z,70.39
2017-08-09T01:14:33.298Z,70.68
2017-08-09T01:15:01.562Z,70.39
2017-08-09T01:15:29.887Z,70.97
2017-08-09T01:15:58.123Z,70.78
2017-08-09T01:16:26.670Z,70.49
2017-08-09T01:16:54.737Z,70.68
2017-08-09T01:17:23.005Z,70.84
2017-08-09T01:17:51.359Z,71.61
2017-08-09T01:18:19.679Z,71.12
2017-08-09T01:18:47.865Z,71.41
2017-08-09T01:19:16.163Z,71.41
2017-08-09T01:19:44.452Z,71.51
2017-08-09T01:20:12.658Z,71.98
2017-08-09T01:20:40.944Z,71.8
2017-08-09T01:21:09.162Z,72.18
2017-08-09T01:21:37.495Z,72.37
2017-08-09T01:22:05.725Z,72.66
2017-08-09T01:22:33.978Z,72.66
2017-08-09T01:23:02.200Z,72.47
2017-08-09T01:23:30.395Z,73.52
2017-08-09T01:23:58.549Z,73.52
2017-08-09T01:24:26.860Z,73.62
2017-08-09T01:24:55.089Z,73.43
2017-08-09T01:25:23.123Z,73.62
2017-08-09T01:25:51.195Z,73.72
2017-08-09T01:26:19.269Z,73.52
2017-08-09T01:26:47.539Z,73.46
2017-08-09T01:27:15.845Z,73.62
2017-08-09T01:27:44.129Z,73.52
2017-08-09T01:28:12.407Z,73.14
2017-08-09T01:28:41.070Z,73.46
2017-08-09T01:29:09.159Z,73.33
2017-08-09T01:29:37.134Z,72.79
2017-08-09T01:30:05.271Z,72.85
2017-08-09T01:30:33.576Z,72.66
2017-08-09T01:31:01.922Z,72.79
2017-08-09T01:31:30.428Z,72.75
2017-08-09T01:31:58.544Z,73.43
2017-08-09T01:32:26.860Z,73.43
2017-08-09T01:32:55.175Z,73.52
2017-08-09T01:33:23.434Z,73.52
2017-08-09T01:33:51.746Z,73.62
2017-08-09T01:34:19.885Z,73.52
2017-08-09T01:34:48.230Z,73.62
2017-08-09T01:35:16.612Z,73.52
2017-08-09T01:35:44.821Z,74.01
2017-08-09T01:36:12.983Z,73.72
2017-08-09T01:36:41.342Z,73.62
2017-08-09T01:37:09.458Z,74.1
2017-08-09T01:37:37.556Z,74.48
2017-08-09T01:38:05.736Z,74.29
2017-08-09T01:38:33.927Z,74.48
2017-08-09T01:39:02.090Z,74.19
2017-08-09T01:39:30.371Z,74.19
2017-08-09T01:39:58.528Z,74.87
2017-08-09T01:40:26.717Z,75.06
2017-08-09T01:40:55.041Z,75.25
2017-08-09T01:41:23.293Z,75.12
2017-08-09T01:41:51.559Z,74.83
2017-08-09T01:42:19.800Z,74.44
2017-08-09T01:42:48.093Z,75.31
2017-08-09T01:43:16.332Z,75.4
2017-08-09T01:43:44.599Z,75.31
2017-08-09T01:44:12.894Z,74.93
2017-08-09T01:44:41.054Z,75.21
2017-08-09T01:45:09.604Z,75.5
2017-08-09T01:45:37.885Z,75.4
2017-08-09T01:46:05.913Z,75.7
2017-08-09T01:46:33.996Z,76.17
2017-08-09T01:47:02.195Z,76.27
2017-08-09T01:47:30.435Z,76.27
2017-08-09T01:47:58.639Z,76.07
2017-08-09T01:48:26.983Z,76.27
2017-08-09T01:48:55.154Z,76.46
2017-08-09T01:49:23.430Z,76.75
2017-08-09T01:49:51.466Z,77.33
2017-08-09T01:50:19.706Z,77.33
2017-08-09T01:50:47.900Z,77.33
2017-08-09T01:51:16.101Z,78.09
2017-08-09T01:51:44.179Z,78.57
2017-08-09T01:52:12.539Z,79.05
2017-08-09T01:52:40.629Z,80.11
2017-08-09T01:53:08.875Z,80.78
2017-08-09T01:53:37.167Z,81.35
2017-08-09T01:54:05.331Z,81.93
2017-08-09T01:54:33.563Z,81.45
2017-08-09T01:55:01.774Z,81.64
2017-08-09T01:55:30.054Z,82.12
2017-08-09T01:55:58.247Z,82.7
2017-08-09T01:56:26.403Z,82.89
2017-08-09T01:56:54.821Z,84.04
2017-08-09T01:57:22.900Z,84.61
2017-08-09T01:57:51.119Z,85.58
2017-08-09T01:58:19.308Z,85.58
2017-08-09T01:58:47.543Z,85.86
2017-08-09T01:59:15.562Z,86.25
2017-08-09T01:59:43.810Z,86.44
2017-08-09T02:00:11.887Z,86.82
2017-08-09T02:00:40.016Z,86.54
2017-08-09T02:01:08.226Z,86.63
2017-08-09T02:01:36.642Z,86.63
2017-08-09T02:02:05.054Z,86.54
2017-08-09T02:02:33.240Z,86.3
2017-08-09T02:03:01.558Z,86.21
2017-08-09T02:03:29.712Z,86.21
2017-08-09T02:03:58.028Z,86.4
2017-08-09T02:04:26.335Z,86.11
2017-08-09T02:04:54.635Z,86.11
2017-08-09T02:05:22.621Z,86.05
2017-08-09T02:05:50.888Z,85.34
2017-08-09T02:06:19.127Z,85.15
2017-08-09T02:06:47.414Z,84.71
2017-08-09T02:07:15.829Z,84.33
2017-08-09T02:07:44.104Z,83.85
2017-08-09T02:08:12.285Z,83.85
2017-08-09T02:08:40.517Z,83.65
2017-08-09T02:09:08.690Z,83.56
2017-08-09T02:09:36.964Z,82.98
2017-08-09T02:10:05.077Z,82.89
2017-08-09T02:10:33.267Z,82.21
2017-08-09T02:11:01.543Z,81.35
2017-08-09T02:11:29.706Z,81.64
2017-08-09T02:11:57.944Z,81.26
2017-08-09T02:12:26.290Z,81.26
2017-08-09T02:12:54.469Z,80.68
2017-08-09T02:13:22.656Z,80.58
2017-08-09T02:13:50.764Z,80.3
2017-08-09T02:14:19.032Z,80.49
2017-08-09T02:14:47.213Z,80.4
2017-08-09T02:15:15.502Z,80.49
2017-08-09T02:15:43.797Z,80.4
2017-08-09T02:16:12.087Z,80.4
2017-08-09T02:16:40.386Z,80.58
2017-08-09T02:17:08.496Z,80.49
2017-08-09T02:17:36.816Z,80.4
2017-08-09T02:18:05.065Z,80.3
2017-08-09T02:18:33.205Z,80.49
2017-08-09T02:19:01.491Z,80.3
2017-08-09T02:19:29.659Z,80.2
2017-08-09T02:19:57.815Z,80.11
2017-08-09T02:20:26.053Z,80.78
2017-08-09T02:20:54.296Z,81.26
2017-08-09T02:21:22.549Z,81.16
2017-08-09T02:21:50.753Z,81.35
2017-08-09T02:22:19.171Z,81.07
2017-08-09T02:22:47.375Z,81.35
2017-08-09T02:23:15.626Z,81.51
2017-08-09T02:23:43.797Z,81.89
2017-08-09T02:24:12.013Z,82.27
2017-08-09T02:24:40.222Z,82.65
2017-08-09T02:25:08.291Z,82.65
2017-08-09T02:25:36.575Z,83.23
2017-08-09T02:26:04.818Z,83.14
2017-08-09T02:26:33.025Z,83.61
2017-08-09T02:27:01.195Z,83.52
2017-08-09T02:27:29.589Z,83.71
2017-08-09T02:27:57.676Z,84
2017-08-09T02:28:25.976Z,83.81
2017-08-09T02:28:54.315Z,83.81
2017-08-09T02:29:22.591Z,84.58
2017-08-09T02:29:50.647Z,84.67
2017-08-09T02:30:18.771Z,84.86
2017-08-09T02:30:46.952Z,86.11
2017-08-09T02:31:15.101Z,87.02
2017-08-09T02:31:43.367Z,87.16
2017-08-09T02:32:11.562Z,87.16
2017-08-09T02:32:40.028Z,87.55
2017-08-09T02:33:08.088Z,87.02
2017-08-09T02:33:36.398Z,86.97
2017-08-09T02:34:04.570Z,86.93
2017-08-09T02:34:32.730Z,86.83
2017-08-09T02:35:00.889Z,87.02
2017-08-09T02:35:29.207Z,87.02
2017-08-09T02:35:57.367Z,86.74
2017-08-09T02:36:25.417Z,86.64
2017-08-09T02:36:53.705Z,86.64
2017-08-09T02:37:21.967Z,87.02
2017-08-09T02:37:50.345Z,87.02
2017-08-09T02:38:18.600Z,87.12
2017-08-09T02:38:46.784Z,86.83
2017-08-09T02:39:14.931Z,87.41
2017-08-09T02:39:43.158Z,87.41
2017-08-09T02:40:11.356Z,87.12
2017-08-09T02:40:39.522Z,87.41
2017-08-09T02:41:07.776Z,87.7
2017-08-09T02:41:36.013Z,87.79
2017-08-09T02:42:04.171Z,88.37
2017-08-09T02:42:32.337Z,88.37
2017-08-09T02:43:01.037Z,88.27
2017-08-09T02:43:31.244Z,88.17
2017-08-09T02:43:59.588Z,88.17
2017-08-09T02:44:27.837Z,87.88
2017-08-09T02:44:56.221Z,87.6
2017-08-09T02:45:24.503Z,88.08
2017-08-09T02:45:52.707Z,87.79
2017-08-09T02:46:20.989Z,88.37
2017-08-09T02:46:49.198Z,88.6
2017-08-09T02:47:17.467Z,88.41
2017-08-09T02:47:45.769Z,88.12
2017-08-09T02:48:13.939Z,87.45
2017-08-09T02:48:42.203Z,87.16
2017-08-09T02:49:10.350Z,87.26
2017-08-09T02:49:38.519Z,87.07
2017-08-09T02:50:06.606Z,87.35
2017-08-09T02:50:34.764Z,87.45
2017-08-09T02:51:03.071Z,87.26
2017-08-09T02:51:31.337Z,87.5
2017-08-09T02:51:59.664Z,87.07
2017-08-09T02:52:27.869Z,87.07
2017-08-09T02:52:56.201Z,87.02
2017-08-09T02:53:24.457Z,87.16
2017-08-09T02:53:52.718Z,87.12
2017-08-09T02:54:20.913Z,87.93
2017-08-09T02:54:49.167Z,87.74
2017-08-09T02:55:17.379Z,87.74
2017-08-09T02:55:45.586Z,87.45
2017-08-09T02:56:13.853Z,87.93
2017-08-09T02:56:41.976Z,87.84
2017-08-09T02:57:10.268Z,87.88
2017-08-09T02:57:38.522Z,87.74
2017-08-09T02:58:06.859Z,88.12
2017-08-09T02:58:34.994Z,87.88
2017-08-09T02:59:03.136Z,87.21
2017-08-09T02:59:31.319Z,87.31
2017-08-09T02:59:59.632Z,87.79
2017-08-09T03:00:27.924Z,87.7
2017-08-09T03:00:56.129Z,87.79
2017-08-09T03:01:24.294Z,87.7
2017-08-09T03:01:52.483Z,87.79
2017-08-09T03:02:20.707Z,88.08
2017-08-09T03:02:48.920Z,88.17
2017-08-09T03:03:17.230Z,87.94
2017-08-09T03:03:45.530Z,88.32
2017-08-09T03:04:13.797Z,88.03
2017-08-09T03:04:42.063Z,88.46
2017-08-09T03:05:10.205Z,88.32
2017-08-09T03:05:38.200Z,88.42
2017-08-09T03:06:06.430Z,88.42
2017-08-09T03:06:34.534Z,88.32
2017-08-09T03:07:02.693Z,89.28
2017-08-09T03:07:30.952Z,88.9
2017-08-09T03:07:59.207Z,88.8
2017-08-09T03:08:27.467Z,89.09
2017-08-09T03:08:55.660Z,88.8
2017-08-09T03:09:23.976Z,89.09
2017-08-09T03:09:52.126Z,89.09
2017-08-09T03:10:20.301Z,89.66
2017-08-09T03:10:48.538Z,89.57
2017-08-09T03:11:16.820Z,89.66
2017-08-09T03:11:44.980Z,89.47
2017-08-09T03:12:13.133Z,89.47
2017-08-09T03:12:41.360Z,89.28
2017-08-09T03:13:09.542Z,89.95
2017-08-09T03:13:37.686Z,89.95
2017-08-09T03:14:05.773Z,90.05
2017-08-09T03:14:34.038Z,89.86
2017-08-09T03:15:02.343Z,89.95
2017-08-09T03:15:30.655Z,90.14
2017-08-09T03:15:58.859Z,90.48
2017-08-09T03:16:27.087Z,90.33
2017-08-09T03:16:55.358Z,90.29
2017-08-09T03:17:23.616Z,90.48
2017-08-09T03:17:51.668Z,90.29
2017-08-09T03:18:19.979Z,90.58
2017-08-09T03:18:48.065Z,90.86
2017-08-09T03:19:16.188Z,90.48
2017-08-09T03:19:44.268Z,90.67
2017-08-09T03:20:12.446Z,90.86
2017-08-09T03:20:40.770Z,90.86
2017-08-09T03:21:08.937Z,91.05
2017-08-09T03:21:37.191Z,91.05
2017-08-09T03:22:05.399Z,91.72
2017-08-09T03:22:33.464Z,91.34
2017-08-09T03:23:01.595Z,91.15
2017-08-09T03:23:29.883Z,91.63
2017-08-09T03:23:58.035Z,91.34
2017-08-09T03:24:26.340Z,91.25
2017-08-09T03:24:54.494Z,91.63
2017-08-09T03:25:22.655Z,91.44
2017-08-09T03:25:50.953Z,91.63
2017-08-09T03:26:19.217Z,92.01
2017-08-09T03:26:47.436Z,92.21
2017-08-09T03:27:15.573Z,91.92
2017-08-09T03:27:43.674Z,92.21
2017-08-09T03:28:11.812Z,91.92
2017-08-09T03:28:40.083Z,91.92
2017-08-09T03:29:08.154Z,91.72
2017-08-09T03:29:36.435Z,91.82
2017-08-09T03:30:04.661Z,91.92
2017-08-09T03:30:32.968Z,92.21
2017-08-09T03:31:01.172Z,92.4
2017-08-09T03:31:29.365Z,92.4
2017-08-09T03:31:57.540Z,92.21
2017-08-09T03:32:25.673Z,92.3
2017-08-09T03:32:53.938Z,92.78
2017-08-09T03:33:22.167Z,93.07
2017-08-09T03:33:50.481Z,92.87
2017-08-09T03:34:18.667Z,92.97
2017-08-09T03:34:46.724Z,92.87
2017-08-09T03:35:14.846Z,92.78
2017-08-09T03:35:42.965Z,92.97
2017-08-09T03:36:11.169Z,93.07
2017-08-09T03:36:39.254Z,93.54
2017-08-09T03:37:07.554Z,92.87
2017-08-09T03:37:35.667Z,93.35
2017-08-09T03:38:03.737Z,93.64
2017-08-09T03:38:32.313Z,93.35
2017-08-09T03:39:00.616Z,93.45
2017-08-09T03:39:31.780Z,93.45
2017-08-09T03:40:00.036Z,93.54
2017-08-09T03:40:28.227Z,93.64
2017-08-09T03:40:56.331Z,93.35
2017-08-09T03:41:24.611Z,93.64
2017-08-09T03:41:52.765Z,93.83
2017-08-09T03:42:21.022Z,93.83
2017-08-09T03:42:49.171Z,93.83
2017-08-09T03:43:17.180Z,93.93
2017-08-09T03:43:45.542Z,94.5
2017-08-09T03:44:13.805Z,94.5
2017-08-09T03:44:42.024Z,93.93
2017-08-09T03:45:10.287Z,94.4
2017-08-09T03:45:38.548Z,94.6
2017-08-09T03:46:06.886Z,94.69
2017-08-09T03:46:35.126Z,94.79
2017-08-09T03:47:03.381Z,94.6
2017-08-09T03:47:31.636Z,95.17
2017-08-09T03:47:59.860Z,95.36
2017-08-09T03:48:28.108Z,95.17
2017-08-09T03:48:56.453Z,95.07
2017-08-09T03:49:24.617Z,95.17
2017-08-09T03:49:52.879Z,95.17
2017-08-09T03:50:21.123Z,95.17
2017-08-09T03:50:49.168Z,95.03
2017-08-09T03:51:17.495Z,95.12
2017-08-09T03:51:45.545Z,95.22
2017-08-09T03:52:13.748Z,94.89
2017-08-09T03:52:41.929Z,95.56
2017-08-09T03:53:10.082Z,95.79
2017-08-09T03:53:38.348Z,95.79
2017-08-09T03:54:06.609Z,95.7
2017-08-09T03:54:34.751Z,95.41
2017-08-09T03:55:02.825Z,95.51
2017-08-09T03:55:30.984Z,95.61
2017-08-09T03:55:59.255Z,95.22
2017-08-09T03:56:27.441Z,95.12
2017-08-09T03:56:55.733Z,95.31
2017-08-09T03:57:23.989Z,95.22
2017-08-09T03:57:52.206Z,95.61
2017-08-09T03:58:20.379Z,95.12
2017-08-09T03:58:48.749Z,95.41
2017-08-09T03:59:16.923Z,95.22
2017-08-09T03:59:45.061Z,95.41
2017-08-09T04:00:13.226Z,95.61
2017-08-09T04:00:41.447Z,95.41
2017-08-09T04:01:09.610Z,95.7
2017-08-09T04:01:37.778Z,95.98
2017-08-09T04:02:06.069Z,96.27
2017-08-09T04:02:34.362Z,96.47
2017-08-09T04:03:02.427Z,95.98
2017-08-09T04:03:30.679Z,96.08
2017-08-09T04:03:59.258Z,96.47
2017-08-09T04:04:27.473Z,96.84
2017-08-09T04:04:55.626Z,96.66
2017-08-09T04:05:23.896Z,96.56
2017-08-09T04:05:52.089Z,96.75
2017-08-09T04:06:20.370Z,97.13
2017-08-09T04:06:48.574Z,97.13
2017-08-09T04:07:16.764Z,96.84
2017-08-09T04:07:44.920Z,96.84
2017-08-09T04:08:13.189Z,97.33
2017-08-09T04:08:41.298Z,97.23
2017-08-09T04:09:09.599Z,97.42
2017-08-09T04:09:37.727Z,97.71
2017-08-09T04:10:05.764Z,97.52
2017-08-09T04:10:33.975Z,97.61
2017-08-09T04:11:02.209Z,97.52
2017-08-09T04:11:30.457Z,97.42
2017-08-09T04:11:58.620Z,97.61
2017-08-09T04:12:26.822Z,97.61
2017-08-09T04:12:54.901Z,97.71
2017-08-09T04:13:23.199Z,97.13
2017-08-09T04:13:51.277Z,97.52
2017-08-09T04:14:19.489Z,97.42
2017-08-09T04:14:47.549Z,97.8
2017-08-09T04:15:15.797Z,97.61
2017-08-09T04:15:43.921Z,97.61
2017-08-09T04:16:12.049Z,98.47
2017-08-09T04:16:40.304Z,98.38
2017-08-09T04:17:08.475Z,98.09
2017-08-09T04:17:36.731Z,98.38
2017-08-09T04:18:04.979Z,98.28
2017-08-09T04:18:33.123Z,98.19
2017-08-09T04:19:01.459Z,98.09
2017-08-09T04:19:29.692Z,98.57
2017-08-09T04:19:57.979Z,98.19
2017-08-09T04:20:26.273Z,98.28
2017-08-09T04:20:54.423Z,98.19
2017-08-09T04:21:22.540Z,98.19
2017-08-09T04:21:50.733Z,98.19
2017-08-09T04:22:19.054Z,98.38
2017-08-09T04:22:47.336Z,98.57
2017-08-09T04:23:15.493Z,97.9
2017-08-09T04:23:43.615Z,98.57
2017-08-09T04:24:11.943Z,98.38
2017-08-09T04:24:40.251Z,98.52
2017-08-09T04:25:08.324Z,98.9
2017-08-09T04:25:36.611Z,98.81
2017-08-09T04:26:04.840Z,98.9
2017-08-09T04:26:33.023Z,99.29
2017-08-09T04:27:01.223Z,99.1
2017-08-09T04:27:29.247Z,99
2017-08-09T04:27:57.427Z,99.29
2017-08-09T04:28:25.732Z,99.48
2017-08-09T04:28:53.823Z,99.29
2017-08-09T04:29:22.107Z,99.57
2017-08-09T04:29:50.256Z,99.1
2017-08-09T04:30:18.345Z,99.81
2017-08-09T04:30:46.635Z,99.38
2017-08-09T04:31:14.738Z,99.38
2017-08-09T04:31:42.921Z,99.76
2017-08-09T04:32:11.162Z,99.96
2017-08-09T04:32:39.255Z,99.67
2017-08-09T04:33:07.474Z,99.38
2017-08-09T04:33:35.600Z,99.57
2017-08-09T04:34:03.871Z,99.67
2017-08-09T04:34:32.294Z,99.57
2017-08-09T04:35:00.370Z,99.1
2017-08-09T04:35:28.534Z,99.67
2017-08-09T04:35:56.667Z,99.57
2017-08-09T04:36:24.827Z,99.67
2017-08-09T04:36:53.073Z,99.96
2017-08-09T04:37:21.232Z,99.99
2017-08-09T04:37:49.414Z,99.99
2017-08-09T04:38:17.499Z,99.99
2017-08-09T04:38:45.626Z,99.99
2017-08-09T04:39:13.838Z,99.99
2017-08-09T04:39:42.094Z,99.99
2017-08-09T04:40:10.341Z,99.99
2017-08-09T04:40:38.651Z,99.99
2017-08-09T04:41:06.958Z,99.99
2017-08-09T04:41:35.115Z,99.99
2017-08-09T04:42:03.351Z,99.99
2017-08-09T04:42:31.509Z,99.99
2017-08-09T04:42:59.654Z,99.99
2017-08-09T04:43:27.794Z,99.99
2017-08-09T04:43:55.897Z,99.99
2017-08-09T04:44:24.140Z,99.99
2017-08-09T04:44:52.286Z,99.99
2017-08-09T04:45:20.349Z,99.99
2017-08-09T04:45:48.511Z,99.99
2017-08-09T04:46:16.657Z,99.99
2017-08-09T04:46:44.700Z,99.99
2017-08-09T04:47:13.017Z,99.99
2017-08-09T04:47:41.340Z,99.99
2017-08-09T04:48:09.570Z,99.99
2017-08-09T04:48:37.810Z,99.99
2017-08-09T04:49:05.996Z,99.99
2017-08-09T04:49:34.484Z,99.99
2017-08-09T04:50:02.764Z,99.99
2017-08-09T04:50:31.003Z,99.99
2017-08-09T04:50:59.021Z,99.99
2017-08-09T04:51:27.257Z,99.99
2017-08-09T04:51:55.427Z,99.99
2017-08-09T04:52:23.578Z,99.99
2017-08-09T04:52:51.726Z,99.99
2017-08-09T04:53:20.000Z,99.99
2017-08-09T04:53:48.088Z,99.99
2017-08-09T04:54:16.361Z,99.99
2017-08-09T04:54:44.753Z,99.99
2017-08-09T04:55:12.906Z,99.99
2017-08-09T04:55:41.186Z,99.99
2017-08-09T04:56:09.247Z,99.99
2017-08-09T04:56:37.324Z,99.99
2017-08-09T04:57:05.518Z,99.99
2017-08-09T04:57:33.783Z,99.99
2017-08-09T04:58:02.227Z,99.99
2017-08-09T04:58:34.771Z,99.99
2017-08-09T04:59:06.576Z,99.99
2017-08-09T04:59:38.329Z,99.99
2017-08-09T05:00:09.493Z,99.99
2017-08-09T05:00:40.573Z,99.99
2017-08-09T05:01:10.231Z,99.99
2017-08-09T05:01:43.034Z,99.99
2017-08-09T05:02:14.037Z,99.99
2017-08-09T05:02:44.771Z,99.99
2017-08-09T05:03:14.981Z,99.99
2017-08-09T05:03:46.200Z,99.99
2017-08-09T05:04:17.493Z,99.99
2017-08-09T05:04:48.622Z,99.99
2017-08-09T05:05:18.019Z,99.99
2017-08-09T05:05:47.182Z,99.99
2017-08-09T05:06:19.825Z,99.99
2017-08-09T05:06:51.710Z,99.99
2017-08-09T05:07:22.003Z,99.99
2017-08-09T05:07:52.102Z,99.99
2017-08-09T05:08:21.414Z,99.99
2017-08-09T05:09:02.388Z,99.99
2017-08-09T05:09:30.945Z,99.99
2017-08-09T05:09:59.287Z,99.99
2017-08-09T05:10:27.475Z,99.99
2017-08-09T05:10:55.601Z,99.99
2017-08-09T05:11:23.841Z,99.99
2017-08-09T05:11:52.149Z,99.99
2017-08-09T05:12:20.423Z,99.99
2017-08-09T05:12:48.696Z,99.99
2017-08-09T05:13:16.841Z,99.99
2017-08-09T05:13:44.922Z,99.99
2017-08-09T05:14:12.887Z,99.99
2017-08-09T05:14:41.064Z,99.99
2017-08-09T05:15:09.390Z,99.99
2017-08-09T05:15:37.487Z,99.99
2017-08-09T05:16:05.685Z,99.99
2017-08-09T05:16:33.979Z,99.99
2017-08-09T05:17:02.236Z,99.99
2017-08-09T05:17:30.508Z,99.99
2017-08-09T05:17:58.686Z,99.99
2017-08-09T05:18:26.948Z,99.99
2017-08-09T05:18:55.125Z,99.99
2017-08-09T05:19:23.285Z,99.99
2017-08-09T05:19:51.408Z,99.99
2017-08-09T05:20:19.554Z,99.99
2017-08-09T05:20:47.813Z,99.99
2017-08-09T05:21:15.925Z,99.99
2017-08-09T05:21:44.014Z,99.99
2017-08-09T05:22:12.235Z,99.99
2017-08-09T05:22:40.393Z,99.99
2017-08-09T05:23:08.639Z,99.99
2017-08-09T05:23:36.876Z,99.99
2017-08-09T05:24:05.056Z,99.99
2017-08-09T05:24:33.279Z,99.99
2017-08-09T05:25:01.619Z,99.99
2017-08-09T05:25:29.884Z,99.99
2017-08-09T05:25:57.983Z,99.99
2017-08-09T05:26:26.254Z,99.99
2017-08-09T05:26:54.540Z,99.99
2017-08-09T05:27:22.832Z,99.99
2017-08-09T05:27:50.739Z,99.99
2017-08-09T05:28:18.976Z,99.99
2017-08-09T05:28:47.258Z,99.99
2017-08-09T05:29:15.458Z,99.99
2017-08-09T05:29:43.730Z,99.99
2017-08-09T05:30:12.006Z,99.99
2017-08-09T05:30:40.226Z,99.99
2017-08-09T05:31:08.417Z,99.99
2017-08-09T05:31:36.602Z,99.99
2017-08-09T05:32:04.922Z,99.99
2017-08-09T05:32:33.216Z,99.99
2017-08-09T05:33:01.478Z,99.96
2017-08-09T05:33:29.762Z,99.48
2017-08-09T05:33:58.030Z,99.77
2017-08-09T05:34:26.332Z,99.99
2017-08-09T05:34:54.509Z,99.87
2017-08-09T05:35:23.001Z,99.58
2017-08-09T05:35:51.201Z,99.96
2017-08-09T05:36:19.433Z,99.62
2017-08-09T05:36:47.616Z,99.77
2017-08-09T05:37:15.876Z,99.62
2017-08-09T05:37:44.165Z,99.52
2017-08-09T05:38:12.473Z,99.67
2017-08-09T05:38:40.751Z,99.43
2017-08-09T05:39:09.009Z,99.43
2017-08-09T05:39:37.296Z,99.67
2017-08-09T05:40:05.532Z,99.48
2017-08-09T05:40:33.836Z,99.67
2017-08-09T05:41:02.034Z,99.72
2017-08-09T05:41:30.177Z,99.99
2017-08-09T05:41:58.288Z,99.67
2017-08-09T05:42:26.540Z,99.19
2017-08-09T05:42:54.644Z,99.19
2017-08-09T05:43:22.899Z,98.76
2017-08-09T05:43:51.048Z,99
2017-08-09T05:44:19.203Z,99.62
2017-08-09T05:44:47.363Z,99.43
2017-08-09T05:45:15.651Z,99.15
2017-08-09T05:45:43.888Z,99.24
2017-08-09T05:46:11.966Z,99.15
2017-08-09T05:46:40.141Z,98.86
2017-08-09T05:47:08.345Z,98.86
2017-08-09T05:47:36.455Z,98.86
2017-08-09T05:48:04.696Z,98.86
2017-08-09T05:48:32.973Z,98.86
2017-08-09T05:49:01.097Z,98.95
2017-08-09T05:49:29.368Z,98.66
2017-08-09T05:49:57.538Z,98.47
2017-08-09T05:50:25.806Z,98.38
2017-08-09T05:50:53.968Z,98.38
2017-08-09T05:51:22.158Z,98.57
2017-08-09T05:51:50.294Z,98.47
2017-08-09T05:52:18.487Z,98.57
2017-08-09T05:52:46.626Z,98.66
2017-08-09T05:53:14.827Z,98.47
2017-08-09T05:53:42.953Z,98.57
2017-08-09T05:54:11.134Z,98.66
2017-08-09T05:54:39.316Z,98.38
2017-08-09T05:55:07.627Z,98.47
2017-08-09T05:55:35.900Z,98.66
2017-08-09T05:56:04.181Z,98.86
2017-08-09T05:56:32.329Z,98.95
2017-08-09T05:57:00.585Z,98.66
2017-08-09T05:57:28.852Z,98.28
2017-08-09T05:57:57.076Z,98.95
2017-08-09T05:58:25.211Z,98.95
2017-08-09T05:58:53.427Z,98.76
2017-08-09T05:59:21.524Z,99.05
2017-08-09T05:59:49.759Z,99.05
2017-08-09T06:00:17.982Z,98.86
2017-08-09T06:00:46.268Z,98.66
2017-08-09T06:01:14.374Z,98.57
2017-08-09T06:01:42.623Z,98.47
2017-08-09T06:02:10.884Z,98.38
2017-08-09T06:02:39.137Z,98.57
2017-08-09T06:03:07.289Z,98.47
2017-08-09T06:03:35.470Z,98.57
2017-08-09T06:04:03.759Z,98.57
2017-08-09T06:04:32.008Z,98.76
2017-08-09T06:05:00.169Z,98.66
2017-08-09T06:05:28.398Z,98.76